sensor_id;sensor_type;location;lat;lon;timestamp;P1;durP1;ratioP1;P2;durP2;ratioP2
38399;SDS011;24180;42.676;23.320;2023-03-29T00:00:09;5.47;;;4.60;;
38399;SDS011;24180;42.676;23.320;2023-03-29T00:02:38;4.57;;;4.27;;
38399;SDS011;24180;42.676;23.320;2023-03-29T00:05:05;5.00;;;4.60;;
38399;SDS011;24180;42.676;23.320;2023-03-29T00:07:31;6.47;;;4.97;;
38399;SDS011;24180;42.676;23.320;2023-03-29T00:10:03;4.23;;;3.87;;
38399;SDS011;24180;42.676;23.320;2023-03-29T00:12:29;5.30;;;4.80;;
38399;SDS011;24180;42.676;23.320;2023-03-29T00:14:55;4.43;;;3.07;;
38399;SDS011;24180;42.676;23.320;2023-03-29T00:17:20;4.90;;;4.50;;
38399;SDS011;24180;42.676;23.320;2023-03-29T00:19:46;3.43;;;3.23;;
38399;SDS011;24180;42.676;23.320;2023-03-29T00:22:12;4.30;;;3.90;;
38399;SDS011;24180;42.676;23.320;2023-03-29T00:24:37;4.30;;;3.77;;
38399;SDS011;24180;42.676;23.320;2023-03-29T00:27:03;4.60;;;4.20;;
38399;SDS011;24180;42.676;23.320;2023-03-29T00:29:29;6.13;;;4.83;;
38399;SDS011;24180;42.676;23.320;2023-03-29T00:31:54;10.23;;;4.00;;
38399;SDS011;24180;42.676;23.320;2023-03-29T00:34:23;4.80;;;4.40;;
38399;SDS011;24180;42.676;23.320;2023-03-29T00:36:51;5.17;;;3.90;;
38399;SDS011;24180;42.676;23.320;2023-03-29T00:39:20;6.57;;;4.87;;
38399;SDS011;24180;42.676;23.320;2023-03-29T00:41:46;5.77;;;4.17;;
38399;SDS011;24180;42.676;23.320;2023-03-29T00:47:15;4.57;;;4.17;;
38399;SDS011;24180;42.676;23.320;2023-03-29T00:49:45;6.80;;;3.97;;
38399;SDS011;24180;42.676;23.320;2023-03-29T00:52:13;5.47;;;4.43;;
38399;SDS011;24180;42.676;23.320;2023-03-29T00:54:42;4.03;;;3.73;;
38399;SDS011;24180;42.676;23.320;2023-03-29T00:57:10;3.50;;;3.20;;
38399;SDS011;24180;42.676;23.320;2023-03-29T00:59:37;4.90;;;3.50;;
38399;SDS011;24180;42.676;23.320;2023-03-29T01:02:06;4.60;;;3.40;;
38399;SDS011;24180;42.676;23.320;2023-03-29T01:04:33;3.70;;;3.40;;
38399;SDS011;24180;42.676;23.320;2023-03-29T01:07:03;4.63;;;4.23;;
38399;SDS011;24180;42.676;23.320;2023-03-29T01:09:30;4.17;;;3.77;;
38399;SDS011;24180;42.676;23.320;2023-03-29T01:12:00;5.07;;;4.60;;
38399;SDS011;24180;42.676;23.320;2023-03-29T01:14:35;4.03;;;3.67;;
38399;SDS011;24180;42.676;23.320;2023-03-29T01:17:05;4.23;;;3.93;;
38399;SDS011;24180;42.676;23.320;2023-03-29T01:19:33;4.60;;;4.30;;
38399;SDS011;24180;42.676;23.320;2023-03-29T01:22:19;7.67;;;5.17;;
38399;SDS011;24180;42.676;23.320;2023-03-29T01:30:26;3.67;;;3.33;;
38399;SDS011;24180;42.676;23.320;2023-03-29T01:32:58;4.40;;;4.10;;
38399;SDS011;24180;42.676;23.320;2023-03-29T01:35:39;3.60;;;3.30;;
38399;SDS011;24180;42.676;23.320;2023-03-29T01:38:10;4.60;;;4.20;;
38399;SDS011;24180;42.676;23.320;2023-03-29T01:40:56;4.33;;;4.03;;
38399;SDS011;24180;42.676;23.320;2023-03-29T01:43:23;5.00;;;4.60;;
38399;SDS011;24180;42.676;23.320;2023-03-29T01:53:41;3.50;;;3.23;;
38399;SDS011;24180;42.676;23.320;2023-03-29T01:56:15;3.67;;;3.37;;
38399;SDS011;24180;42.676;23.320;2023-03-29T01:58:45;4.10;;;3.80;;
38399;SDS011;24180;42.676;23.320;2023-03-29T02:01:15;4.40;;;4.10;;
38399;SDS011;24180;42.676;23.320;2023-03-29T02:03:47;3.70;;;3.40;;
38399;SDS011;24180;42.676;23.320;2023-03-29T02:06:20;3.40;;;3.20;;
38399;SDS011;24180;42.676;23.320;2023-03-29T02:08:48;4.33;;;3.93;;
38399;SDS011;24180;42.676;23.320;2023-03-29T02:11:17;5.20;;;4.30;;
38399;SDS011;24180;42.676;23.320;2023-03-29T02:13:43;4.73;;;3.77;;
38399;SDS011;24180;42.676;23.320;2023-03-29T02:16:09;10.30;;;4.40;;
38399;SDS011;24180;42.676;23.320;2023-03-29T02:18:37;4.87;;;4.47;;
38399;SDS011;24180;42.676;23.320;2023-03-29T02:21:05;4.60;;;4.27;;
38399;SDS011;24180;42.676;23.320;2023-03-29T02:23:34;5.13;;;3.87;;
38399;SDS011;24180;42.676;23.320;2023-03-29T02:26:04;4.33;;;3.93;;
38399;SDS011;24180;42.676;23.320;2023-03-29T02:28:32;7.20;;;4.13;;
38399;SDS011;24180;42.676;23.320;2023-03-29T02:36:12;4.93;;;4.20;;
38399;SDS011;24180;42.676;23.320;2023-03-29T02:38:43;4.17;;;3.83;;
38399;SDS011;24180;42.676;23.320;2023-03-29T02:41:09;3.87;;;3.57;;
38399;SDS011;24180;42.676;23.320;2023-03-29T02:43:35;6.00;;;4.10;;
38399;SDS011;24180;42.676;23.320;2023-03-29T02:46:02;4.63;;;3.53;;
38399;SDS011;24180;42.676;23.320;2023-03-29T02:48:30;4.47;;;4.17;;
38399;SDS011;24180;42.676;23.320;2023-03-29T02:50:58;4.27;;;3.93;;
38399;SDS011;24180;42.676;23.320;2023-03-29T02:53:50;4.07;;;3.67;;
38399;SDS011;24180;42.676;23.320;2023-03-29T02:56:17;4.67;;;4.27;;
38399;SDS011;24180;42.676;23.320;2023-03-29T02:58:43;3.73;;;3.43;;
38399;SDS011;24180;42.676;23.320;2023-03-29T03:01:08;3.50;;;3.20;;
38399;SDS011;24180;42.676;23.320;2023-03-29T03:03:35;4.00;;;3.70;;
38399;SDS011;24180;42.676;23.320;2023-03-29T03:06:00;3.67;;;3.37;;
38399;SDS011;24180;42.676;23.320;2023-03-29T03:08:26;4.30;;;3.90;;
38399;SDS011;24180;42.676;23.320;2023-03-29T03:10:52;3.97;;;3.33;;
38399;SDS011;24180;42.676;23.320;2023-03-29T03:13:18;4.10;;;3.80;;
38399;SDS011;24180;42.676;23.320;2023-03-29T03:15:44;3.37;;;3.17;;
38399;SDS011;24180;42.676;23.320;2023-03-29T03:18:13;4.60;;;4.20;;
38399;SDS011;24180;42.676;23.320;2023-03-29T03:20:39;3.97;;;3.67;;
38399;SDS011;24180;42.676;23.320;2023-03-29T03:23:04;4.47;;;4.07;;
38399;SDS011;24180;42.676;23.320;2023-03-29T03:25:33;3.53;;;3.23;;
38399;SDS011;24180;42.676;23.320;2023-03-29T03:27:59;4.57;;;4.27;;
38399;SDS011;24180;42.676;23.320;2023-03-29T03:30:25;3.50;;;3.30;;
38399;SDS011;24180;42.676;23.320;2023-03-29T03:32:51;4.23;;;3.93;;
38399;SDS011;24180;42.676;23.320;2023-03-29T03:35:18;4.20;;;3.80;;
38399;SDS011;24180;42.676;23.320;2023-03-29T03:37:44;5.10;;;2.80;;
38399;SDS011;24180;42.676;23.320;2023-03-29T03:40:10;4.23;;;3.37;;
38399;SDS011;24180;42.676;23.320;2023-03-29T03:42:36;4.73;;;4.00;;
38399;SDS011;24180;42.676;23.320;2023-03-29T03:45:03;4.37;;;3.63;;
38399;SDS011;24180;42.676;23.320;2023-03-29T03:47:29;4.30;;;3.90;;
38399;SDS011;24180;42.676;23.320;2023-03-29T03:49:54;5.07;;;3.50;;
38399;SDS011;24180;42.676;23.320;2023-03-29T03:52:20;4.97;;;4.07;;
38399;SDS011;24180;42.676;23.320;2023-03-29T03:54:46;4.00;;;3.70;;
38399;SDS011;24180;42.676;23.320;2023-03-29T03:57:12;3.67;;;3.37;;
38399;SDS011;24180;42.676;23.320;2023-03-29T03:59:38;3.53;;;3.33;;
38399;SDS011;24180;42.676;23.320;2023-03-29T04:02:04;3.40;;;3.20;;
38399;SDS011;24180;42.676;23.320;2023-03-29T04:04:29;3.93;;;3.10;;
38399;SDS011;24180;42.676;23.320;2023-03-29T04:06:55;3.70;;;3.37;;
38399;SDS011;24180;42.676;23.320;2023-03-29T04:09:27;3.00;;;2.80;;
38399;SDS011;24180;42.676;23.320;2023-03-29T04:11:57;3.07;;;2.87;;
38399;SDS011;24180;42.676;23.320;2023-03-29T04:14:23;3.93;;;3.63;;
38399;SDS011;24180;42.676;23.320;2023-03-29T04:16:50;4.23;;;3.83;;
38399;SDS011;24180;42.676;23.320;2023-03-29T04:19:17;3.70;;;3.40;;
38399;SDS011;24180;42.676;23.320;2023-03-29T04:21:43;4.27;;;3.50;;
38399;SDS011;24180;42.676;23.320;2023-03-29T04:24:11;4.30;;;3.90;;
38399;SDS011;24180;42.676;23.320;2023-03-29T04:26:37;3.60;;;3.40;;
38399;SDS011;24180;42.676;23.320;2023-03-29T04:29:02;4.00;;;3.70;;
38399;SDS011;24180;42.676;23.320;2023-03-29T04:31:28;2.90;;;2.70;;
38399;SDS011;24180;42.676;23.320;2023-03-29T04:33:54;4.30;;;3.60;;
38399;SDS011;24180;42.676;23.320;2023-03-29T04:36:20;4.17;;;3.77;;
38399;SDS011;24180;42.676;23.320;2023-03-29T04:38:45;3.10;;;2.90;;
38399;SDS011;24180;42.676;23.320;2023-03-29T04:41:11;2.80;;;2.53;;
38399;SDS011;24180;42.676;23.320;2023-03-29T04:43:37;4.10;;;3.80;;
38399;SDS011;24180;42.676;23.320;2023-03-29T04:46:03;4.43;;;4.13;;
38399;SDS011;24180;42.676;23.320;2023-03-29T04:48:31;4.50;;;4.17;;
38399;SDS011;24180;42.676;23.320;2023-03-29T04:50:57;4.03;;;3.73;;
38399;SDS011;24180;42.676;23.320;2023-03-29T04:53:23;6.73;;;4.33;;
38399;SDS011;24180;42.676;23.320;2023-03-29T04:55:49;5.90;;;3.60;;
38399;SDS011;24180;42.676;23.320;2023-03-29T04:58:15;4.00;;;3.70;;
38399;SDS011;24180;42.676;23.320;2023-03-29T05:00:41;3.37;;;3.13;;
38399;SDS011;24180;42.676;23.320;2023-03-29T05:03:06;3.70;;;3.40;;
38399;SDS011;24180;42.676;23.320;2023-03-29T05:05:35;4.67;;;3.70;;
38399;SDS011;24180;42.676;23.320;2023-03-29T05:08:01;3.43;;;3.13;;
38399;SDS011;24180;42.676;23.320;2023-03-29T05:10:27;4.13;;;3.83;;
38399;SDS011;24180;42.676;23.320;2023-03-29T05:12:52;3.77;;;3.47;;
38399;SDS011;24180;42.676;23.320;2023-03-29T05:15:18;3.50;;;3.20;;
38399;SDS011;24180;42.676;23.320;2023-03-29T05:17:45;3.50;;;3.20;;
38399;SDS011;24180;42.676;23.320;2023-03-29T05:20:11;3.17;;;2.97;;
38399;SDS011;24180;42.676;23.320;2023-03-29T05:22:37;3.30;;;3.00;;
38399;SDS011;24180;42.676;23.320;2023-03-29T05:25:04;3.00;;;2.80;;
38399;SDS011;24180;42.676;23.320;2023-03-29T05:27:30;3.50;;;3.20;;
38399;SDS011;24180;42.676;23.320;2023-03-29T05:29:55;6.47;;;3.40;;
38399;SDS011;24180;42.676;23.320;2023-03-29T05:32:21;3.50;;;2.80;;
38399;SDS011;24180;42.676;23.320;2023-03-29T05:34:46;8.67;;;3.33;;
38399;SDS011;24180;42.676;23.320;2023-03-29T05:37:12;4.30;;;3.23;;
38399;SDS011;24180;42.676;23.320;2023-03-29T05:39:37;4.63;;;3.60;;
38399;SDS011;24180;42.676;23.320;2023-03-29T05:42:03;4.03;;;3.33;;
38399;SDS011;24180;42.676;23.320;2023-03-29T05:44:29;5.33;;;3.50;;
38399;SDS011;24180;42.676;23.320;2023-03-29T05:46:55;4.43;;;3.40;;
38399;SDS011;24180;42.676;23.320;2023-03-29T05:49:21;3.90;;;3.60;;
38399;SDS011;24180;42.676;23.320;2023-03-29T05:51:47;4.20;;;3.90;;
38399;SDS011;24180;42.676;23.320;2023-03-29T05:54:12;3.90;;;3.07;;
38399;SDS011;24180;42.676;23.320;2023-03-29T05:56:39;4.20;;;3.70;;
38399;SDS011;24180;42.676;23.320;2023-03-29T05:59:04;3.67;;;3.37;;
38399;SDS011;24180;42.676;23.320;2023-03-29T06:01:32;5.43;;;3.90;;
38399;SDS011;24180;42.676;23.320;2023-03-29T06:03:58;9.80;;;3.97;;
38399;SDS011;24180;42.676;23.320;2023-03-29T06:06:24;5.10;;;4.17;;
38399;SDS011;24180;42.676;23.320;2023-03-29T06:08:50;6.67;;;4.30;;
38399;SDS011;24180;42.676;23.320;2023-03-29T06:11:15;3.87;;;3.47;;
38399;SDS011;24180;42.676;23.320;2023-03-29T06:13:41;3.63;;;3.00;;
38399;SDS011;24180;42.676;23.320;2023-03-29T06:16:08;3.20;;;3.00;;
38399;SDS011;24180;42.676;23.320;2023-03-29T06:18:34;3.63;;;3.30;;
38399;SDS011;24180;42.676;23.320;2023-03-29T06:21:00;3.70;;;3.43;;
38399;SDS011;24180;42.676;23.320;2023-03-29T06:23:26;3.50;;;3.30;;
38399;SDS011;24180;42.676;23.320;2023-03-29T06:25:52;3.47;;;3.17;;
38399;SDS011;24180;42.676;23.320;2023-03-29T06:28:19;3.20;;;2.93;;
38399;SDS011;24180;42.676;23.320;2023-03-29T06:30:45;3.57;;;3.27;;
38399;SDS011;24180;42.676;23.320;2023-03-29T06:33:11;4.63;;;3.40;;
38399;SDS011;24180;42.676;23.320;2023-03-29T06:35:39;4.87;;;3.87;;
38399;SDS011;24180;42.676;23.320;2023-03-29T06:38:06;6.30;;;3.97;;
38399;SDS011;24180;42.676;23.320;2023-03-29T06:40:32;3.63;;;3.33;;
38399;SDS011;24180;42.676;23.320;2023-03-29T06:42:57;3.10;;;2.90;;
38399;SDS011;24180;42.676;23.320;2023-03-29T06:45:27;2.97;;;2.77;;
38399;SDS011;24180;42.676;23.320;2023-03-29T06:47:55;3.43;;;3.20;;
38399;SDS011;24180;42.676;23.320;2023-03-29T06:50:20;3.07;;;2.87;;
38399;SDS011;24180;42.676;23.320;2023-03-29T06:52:47;3.53;;;3.13;;
38399;SDS011;24180;42.676;23.320;2023-03-29T06:55:12;6.13;;;3.93;;
38399;SDS011;24180;42.676;23.320;2023-03-29T06:57:38;4.27;;;3.60;;
38399;SDS011;24180;42.676;23.320;2023-03-29T07:00:04;3.13;;;2.93;;
38399;SDS011;24180;42.676;23.320;2023-03-29T07:02:55;2.80;;;2.63;;
38399;SDS011;24180;42.676;23.320;2023-03-29T07:05:22;3.17;;;2.97;;
38399;SDS011;24180;42.676;23.320;2023-03-29T07:07:51;3.13;;;2.93;;
38399;SDS011;24180;42.676;23.320;2023-03-29T07:10:19;2.90;;;2.70;;
38399;SDS011;24180;42.676;23.320;2023-03-29T07:12:46;2.30;;;2.20;;
38399;SDS011;24180;42.676;23.320;2023-03-29T07:15:15;2.77;;;2.53;;
38399;SDS011;24180;42.676;23.320;2023-03-29T07:17:41;3.57;;;3.23;;
38399;SDS011;24180;42.676;23.320;2023-03-29T07:20:07;3.33;;;3.10;;
38399;SDS011;24180;42.676;23.320;2023-03-29T07:22:37;3.20;;;2.90;;
38399;SDS011;24180;42.676;23.320;2023-03-29T07:25:03;2.97;;;2.73;;
38399;SDS011;24180;42.676;23.320;2023-03-29T07:27:29;2.90;;;2.70;;
38399;SDS011;24180;42.676;23.320;2023-03-29T07:29:55;2.80;;;2.60;;
38399;SDS011;24180;42.676;23.320;2023-03-29T07:32:21;9.13;;;4.57;;
38399;SDS011;24180;42.676;23.320;2023-03-29T07:34:46;2.53;;;2.33;;
38399;SDS011;24180;42.676;23.320;2023-03-29T07:37:13;3.03;;;2.80;;
38399;SDS011;24180;42.676;23.320;2023-03-29T07:39:39;3.43;;;3.13;;
38399;SDS011;24180;42.676;23.320;2023-03-29T07:42:04;4.47;;;3.60;;
38399;SDS011;24180;42.676;23.320;2023-03-29T07:44:30;2.20;;;2.10;;
38399;SDS011;24180;42.676;23.320;2023-03-29T07:46:57;3.00;;;2.80;;
38399;SDS011;24180;42.676;23.320;2023-03-29T07:49:25;3.20;;;2.90;;
38399;SDS011;24180;42.676;23.320;2023-03-29T07:51:51;2.30;;;2.20;;
38399;SDS011;24180;42.676;23.320;2023-03-29T07:54:17;4.77;;;2.60;;
38399;SDS011;24180;42.676;23.320;2023-03-29T07:56:43;4.27;;;2.50;;
38399;SDS011;24180;42.676;23.320;2023-03-29T07:59:08;3.93;;;2.50;;
38399;SDS011;24180;42.676;23.320;2023-03-29T08:01:34;4.07;;;3.10;;
38399;SDS011;24180;42.676;23.320;2023-03-29T08:03:59;3.40;;;3.10;;
38399;SDS011;24180;42.676;23.320;2023-03-29T08:06:25;2.13;;;2.03;;
38399;SDS011;24180;42.676;23.320;2023-03-29T08:08:51;6.40;;;2.47;;
38399;SDS011;24180;42.676;23.320;2023-03-29T08:11:16;2.53;;;2.33;;
38399;SDS011;24180;42.676;23.320;2023-03-29T08:13:42;3.13;;;2.47;;
38399;SDS011;24180;42.676;23.320;2023-03-29T08:16:08;2.20;;;2.10;;
38399;SDS011;24180;42.676;23.320;2023-03-29T08:18:34;2.10;;;2.00;;
38399;SDS011;24180;42.676;23.320;2023-03-29T08:20:59;4.13;;;2.30;;
38399;SDS011;24180;42.676;23.320;2023-03-29T08:23:25;2.30;;;2.20;;
38399;SDS011;24180;42.676;23.320;2023-03-29T08:25:51;2.83;;;2.07;;
38399;SDS011;24180;42.676;23.320;2023-03-29T08:28:16;2.97;;;2.77;;
38399;SDS011;24180;42.676;23.320;2023-03-29T08:30:42;4.30;;;2.70;;
38399;SDS011;24180;42.676;23.320;2023-03-29T08:33:08;3.47;;;2.30;;
38399;SDS011;24180;42.676;23.320;2023-03-29T08:35:33;3.03;;;2.77;;
38399;SDS011;24180;42.676;23.320;2023-03-29T08:37:59;2.37;;;2.17;;
38399;SDS011;24180;42.676;23.320;2023-03-29T08:40:25;3.13;;;2.80;;
38399;SDS011;24180;42.676;23.320;2023-03-29T08:45:56;6.20;;;2.20;;
38399;SDS011;24180;42.676;23.320;2023-03-29T08:48:32;4.97;;;4.77;;
38399;SDS011;24180;42.676;23.320;2023-03-29T08:51:03;5.63;;;2.40;;
38399;SDS011;24180;42.676;23.320;2023-03-29T08:53:45;2.33;;;2.13;;
38399;SDS011;24180;42.676;23.320;2023-03-29T08:56:20;2.07;;;1.97;;
38399;SDS011;24180;42.676;23.320;2023-03-29T08:58:49;2.80;;;2.60;;
38399;SDS011;24180;42.676;23.320;2023-03-29T09:01:16;2.30;;;2.10;;
38399;SDS011;24180;42.676;23.320;2023-03-29T09:06:32;2.50;;;2.30;;
38399;SDS011;24180;42.676;23.320;2023-03-29T09:08:58;2.90;;;2.70;;
38399;SDS011;24180;42.676;23.320;2023-03-29T09:11:27;2.57;;;2.37;;
38399;SDS011;24180;42.676;23.320;2023-03-29T09:16:55;2.10;;;2.00;;
38399;SDS011;24180;42.676;23.320;2023-03-29T09:19:42;2.47;;;2.37;;
38399;SDS011;24180;42.676;23.320;2023-03-29T09:28:29;3.13;;;2.80;;
38399;SDS011;24180;42.676;23.320;2023-03-29T09:31:04;4.73;;;2.43;;
38399;SDS011;24180;42.676;23.320;2023-03-29T09:33:39;2.60;;;2.43;;
38399;SDS011;24180;42.676;23.320;2023-03-29T09:36:56;2.50;;;2.30;;
38399;SDS011;24180;42.676;23.320;2023-03-29T09:39:01;2.30;;;2.20;;
38399;SDS011;24180;42.676;23.320;2023-03-29T09:41:38;2.37;;;2.10;;
38399;SDS011;24180;42.676;23.320;2023-03-29T09:44:08;3.10;;;2.90;;
38399;SDS011;24180;42.676;23.320;2023-03-29T09:46:41;2.50;;;2.30;;
38399;SDS011;24180;42.676;23.320;2023-03-29T09:49:31;2.63;;;2.43;;
38399;SDS011;24180;42.676;23.320;2023-03-29T09:52:00;3.40;;;2.60;;
38399;SDS011;24180;42.676;23.320;2023-03-29T09:54:30;3.37;;;2.20;;
38399;SDS011;24180;42.676;23.320;2023-03-29T09:56:57;2.40;;;2.30;;
38399;SDS011;24180;42.676;23.320;2023-03-29T09:59:23;2.33;;;2.13;;
38399;SDS011;24180;42.676;23.320;2023-03-29T10:01:48;2.37;;;2.20;;
38399;SDS011;24180;42.676;23.320;2023-03-29T10:04:14;2.63;;;2.30;;
38399;SDS011;24180;42.676;23.320;2023-03-29T10:06:47;3.20;;;2.47;;
38399;SDS011;24180;42.676;23.320;2023-03-29T10:09:17;9.20;;;2.57;;
38399;SDS011;24180;42.676;23.320;2023-03-29T10:11:49;2.10;;;2.00;;
38399;SDS011;24180;42.676;23.320;2023-03-29T10:14:36;2.33;;;2.13;;
38399;SDS011;24180;42.676;23.320;2023-03-29T10:17:18;2.73;;;2.53;;
38399;SDS011;24180;42.676;23.320;2023-03-29T10:19:49;54.97;;;6.97;;
38399;SDS011;24180;42.676;23.320;2023-03-29T10:22:23;2.93;;;2.47;;
38399;SDS011;24180;42.676;23.320;2023-03-29T10:24:56;4.00;;;2.90;;
38399;SDS011;24180;42.676;23.320;2023-03-29T10:27:28;2.40;;;2.20;;
38399;SDS011;24180;42.676;23.320;2023-03-29T10:29:59;2.67;;;2.47;;
38399;SDS011;24180;42.676;23.320;2023-03-29T10:32:33;4.10;;;2.60;;
38399;SDS011;24180;42.676;23.320;2023-03-29T10:37:57;2.30;;;2.20;;
38399;SDS011;24180;42.676;23.320;2023-03-29T10:40:25;5.33;;;2.70;;
38399;SDS011;24180;42.676;23.320;2023-03-29T10:42:57;2.30;;;2.10;;
38399;SDS011;24180;42.676;23.320;2023-03-29T10:45:26;2.10;;;2.00;;
38399;SDS011;24180;42.676;23.320;2023-03-29T10:47:54;4.00;;;2.70;;
38399;SDS011;24180;42.676;23.320;2023-03-29T10:50:22;2.60;;;2.40;;
38399;SDS011;24180;42.676;23.320;2023-03-29T10:52:47;2.80;;;2.60;;
38399;SDS011;24180;42.676;23.320;2023-03-29T10:55:14;2.37;;;2.00;;
38399;SDS011;24180;42.676;23.320;2023-03-29T10:57:49;2.77;;;2.13;;
38399;SDS011;24180;42.676;23.320;2023-03-29T11:00:39;3.43;;;2.33;;
38399;SDS011;24180;42.676;23.320;2023-03-29T11:03:21;3.10;;;2.50;;
38399;SDS011;24180;42.676;23.320;2023-03-29T11:06:06;2.50;;;2.40;;
38399;SDS011;24180;42.676;23.320;2023-03-29T11:08:47;2.53;;;2.27;;
38399;SDS011;24180;42.676;23.320;2023-03-29T11:20:18;2.40;;;2.20;;
38399;SDS011;24180;42.676;23.320;2023-03-29T11:23:01;2.53;;;2.33;;
38399;SDS011;24180;42.676;23.320;2023-03-29T11:39:29;4.60;;;2.23;;
38399;SDS011;24180;42.676;23.320;2023-03-29T11:42:04;2.27;;;2.17;;
38399;SDS011;24180;42.676;23.320;2023-03-29T11:44:39;2.30;;;2.20;;
38399;SDS011;24180;42.676;23.320;2023-03-29T11:47:09;2.10;;;1.90;;
38399;SDS011;24180;42.676;23.320;2023-03-29T11:49:41;2.60;;;2.10;;
38399;SDS011;24180;42.676;23.320;2023-03-29T11:52:20;2.43;;;2.33;;
38399;SDS011;24180;42.676;23.320;2023-03-29T11:55:09;3.73;;;2.27;;
38399;SDS011;24180;42.676;23.320;2023-03-29T12:05:34;2.83;;;2.47;;
38399;SDS011;24180;42.676;23.320;2023-03-29T12:08:07;2.37;;;2.17;;
38399;SDS011;24180;42.676;23.320;2023-03-29T12:13:20;2.50;;;2.30;;
38399;SDS011;24180;42.676;23.320;2023-03-29T12:18:35;2.10;;;2.00;;
38399;SDS011;24180;42.676;23.320;2023-03-29T12:21:08;2.70;;;2.50;;
38399;SDS011;24180;42.676;23.320;2023-03-29T12:23:39;2.83;;;2.47;;
38399;SDS011;24180;42.676;23.320;2023-03-29T12:29:16;2.60;;;2.40;;
38399;SDS011;24180;42.676;23.320;2023-03-29T12:39:51;3.83;;;2.50;;
38399;SDS011;24180;42.676;23.320;2023-03-29T12:42:21;2.63;;;2.43;;
38399;SDS011;24180;42.676;23.320;2023-03-29T12:44:57;3.03;;;2.73;;
38399;SDS011;24180;42.676;23.320;2023-03-29T12:47:37;2.30;;;2.10;;
38399;SDS011;24180;42.676;23.320;2023-03-29T12:50:17;2.30;;;2.10;;
38399;SDS011;24180;42.676;23.320;2023-03-29T12:52:47;2.27;;;2.07;;
38399;SDS011;24180;42.676;23.320;2023-03-29T12:58:27;2.67;;;2.47;;
38399;SDS011;24180;42.676;23.320;2023-03-29T13:04:12;2.60;;;2.37;;
38399;SDS011;24180;42.676;23.320;2023-03-29T13:09:24;2.10;;;2.00;;
38399;SDS011;24180;42.676;23.320;2023-03-29T13:11:54;2.40;;;2.20;;
38399;SDS011;24180;42.676;23.320;2023-03-29T13:14:45;2.90;;;2.70;;
38399;SDS011;24180;42.676;23.320;2023-03-29T13:20:05;2.20;;;2.10;;
38399;SDS011;24180;42.676;23.320;2023-03-29T13:25:31;2.80;;;2.60;;
38399;SDS011;24180;42.676;23.320;2023-03-29T13:30:51;2.70;;;2.50;;
38399;SDS011;24180;42.676;23.320;2023-03-29T13:36:12;2.50;;;2.33;;
38399;SDS011;24180;42.676;23.320;2023-03-29T13:38:50;3.30;;;2.93;;
38399;SDS011;24180;42.676;23.320;2023-03-29T13:41:25;3.00;;;2.80;;
38399;SDS011;24180;42.676;23.320;2023-03-29T13:44:02;2.60;;;2.40;;
38399;SDS011;24180;42.676;23.320;2023-03-29T13:46:35;3.10;;;2.30;;
38399;SDS011;24180;42.676;23.320;2023-03-29T13:52:00;2.43;;;2.23;;
38399;SDS011;24180;42.676;23.320;2023-03-29T13:57:10;1.90;;;1.80;;
38399;SDS011;24180;42.676;23.320;2023-03-29T14:02:31;2.70;;;2.50;;
38399;SDS011;24180;42.676;23.320;2023-03-29T14:05:02;3.63;;;2.40;;
38399;SDS011;24180;42.676;23.320;2023-03-29T14:07:32;3.13;;;2.50;;
38399;SDS011;24180;42.676;23.320;2023-03-29T14:10:01;2.63;;;2.43;;
38399;SDS011;24180;42.676;23.320;2023-03-29T14:12:29;1.90;;;1.80;;
38399;SDS011;24180;42.676;23.320;2023-03-29T14:15:01;2.40;;;2.20;;
38399;SDS011;24180;42.676;23.320;2023-03-29T14:17:29;4.43;;;2.60;;
38399;SDS011;24180;42.676;23.320;2023-03-29T14:19:56;2.50;;;2.30;;
38399;SDS011;24180;42.676;23.320;2023-03-29T14:22:23;4.70;;;3.07;;
38399;SDS011;24180;42.676;23.320;2023-03-29T14:24:53;4.87;;;2.60;;
38399;SDS011;24180;42.676;23.320;2023-03-29T14:27:22;3.27;;;2.50;;
38399;SDS011;24180;42.676;23.320;2023-03-29T14:29:48;2.70;;;2.50;;
38399;SDS011;24180;42.676;23.320;2023-03-29T14:32:18;4.27;;;2.80;;
38399;SDS011;24180;42.676;23.320;2023-03-29T14:34:51;5.57;;;2.63;;
38399;SDS011;24180;42.676;23.320;2023-03-29T14:37:26;2.37;;;2.23;;
38399;SDS011;24180;42.676;23.320;2023-03-29T14:39:54;2.63;;;2.43;;
38399;SDS011;24180;42.676;23.320;2023-03-29T14:42:22;2.00;;;1.80;;
38399;SDS011;24180;42.676;23.320;2023-03-29T14:44:50;4.00;;;2.70;;
38399;SDS011;24180;42.676;23.320;2023-03-29T14:47:26;4.93;;;2.67;;
38399;SDS011;24180;42.676;23.320;2023-03-29T14:49:54;3.80;;;2.63;;
38399;SDS011;24180;42.676;23.320;2023-03-29T14:52:22;1.90;;;1.80;;
38399;SDS011;24180;42.676;23.320;2023-03-29T14:54:50;2.73;;;2.03;;
38399;SDS011;24180;42.676;23.320;2023-03-29T14:57:21;3.63;;;2.27;;
38399;SDS011;24180;42.676;23.320;2023-03-29T14:59:53;2.63;;;2.40;;
38399;SDS011;24180;42.676;23.320;2023-03-29T15:02:24;3.10;;;2.90;;
38399;SDS011;24180;42.676;23.320;2023-03-29T15:08:00;2.60;;;2.40;;
38399;SDS011;24180;42.676;23.320;2023-03-29T15:10:29;4.30;;;2.40;;
38399;SDS011;24180;42.676;23.320;2023-03-29T15:12:56;3.10;;;2.80;;
38399;SDS011;24180;42.676;23.320;2023-03-29T15:15:22;2.70;;;2.50;;
38399;SDS011;24180;42.676;23.320;2023-03-29T15:17:49;2.00;;;1.90;;
38399;SDS011;24180;42.676;23.320;2023-03-29T15:20:26;2.90;;;2.40;;
38399;SDS011;24180;42.676;23.320;2023-03-29T15:23:39;3.13;;;2.50;;
38399;SDS011;24180;42.676;23.320;2023-03-29T15:26:06;3.03;;;2.73;;
38399;SDS011;24180;42.676;23.320;2023-03-29T15:28:33;2.73;;;2.20;;
38399;SDS011;24180;42.676;23.320;2023-03-29T15:31:03;2.83;;;2.60;;
38399;SDS011;24180;42.676;23.320;2023-03-29T15:33:36;3.20;;;2.90;;
38399;SDS011;24180;42.676;23.320;2023-03-29T15:36:03;3.50;;;3.20;;
38399;SDS011;24180;42.676;23.320;2023-03-29T15:38:30;3.97;;;3.00;;
38399;SDS011;24180;42.676;23.320;2023-03-29T15:40:56;3.40;;;3.10;;
38399;SDS011;24180;42.676;23.320;2023-03-29T15:43:23;4.23;;;3.10;;
38399;SDS011;24180;42.676;23.320;2023-03-29T15:45:49;2.97;;;2.70;;
38399;SDS011;24180;42.676;23.320;2023-03-29T15:48:18;2.50;;;2.30;;
38399;SDS011;24180;42.676;23.320;2023-03-29T15:50:46;4.17;;;2.50;;
38399;SDS011;24180;42.676;23.320;2023-03-29T15:53:13;3.07;;;2.80;;
38399;SDS011;24180;42.676;23.320;2023-03-29T15:55:41;4.90;;;3.57;;
38399;SDS011;24180;42.676;23.320;2023-03-29T15:58:13;5.13;;;4.00;;
38399;SDS011;24180;42.676;23.320;2023-03-29T16:00:40;2.97;;;2.73;;
38399;SDS011;24180;42.676;23.320;2023-03-29T16:03:10;4.83;;;3.00;;
38399;SDS011;24180;42.676;23.320;2023-03-29T16:05:38;4.60;;;3.23;;
38399;SDS011;24180;42.676;23.320;2023-03-29T16:08:04;4.47;;;3.43;;
38399;SDS011;24180;42.676;23.320;2023-03-29T16:10:30;3.50;;;2.77;;
38399;SDS011;24180;42.676;23.320;2023-03-29T16:12:55;4.27;;;3.40;;
38399;SDS011;24180;42.676;23.320;2023-03-29T16:15:21;6.73;;;3.53;;
38399;SDS011;24180;42.676;23.320;2023-03-29T16:17:48;8.27;;;5.23;;
38399;SDS011;24180;42.676;23.320;2023-03-29T16:20:13;3.87;;;3.10;;
38399;SDS011;24180;42.676;23.320;2023-03-29T16:22:44;7.47;;;4.50;;
38399;SDS011;24180;42.676;23.320;2023-03-29T16:25:12;6.50;;;4.03;;
38399;SDS011;24180;42.676;23.320;2023-03-29T16:27:40;8.63;;;4.93;;
38399;SDS011;24180;42.676;23.320;2023-03-29T16:30:06;9.75;;;4.68;;
38399;SDS011;24180;42.676;23.320;2023-03-29T16:32:32;8.30;;;6.07;;
38399;SDS011;24180;42.676;23.320;2023-03-29T16:34:58;9.03;;;5.37;;
38399;SDS011;24180;42.676;23.320;2023-03-29T16:37:23;8.57;;;5.40;;
38399;SDS011;24180;42.676;23.320;2023-03-29T16:39:48;7.53;;;4.67;;
38399;SDS011;24180;42.676;23.320;2023-03-29T16:42:14;7.37;;;4.80;;